Latest Weather Observations for Batchelor

IDD60901

Issued at 7:45 pm CST Saturday 1 November 2014 (issued every 10 minutes, with the page automatically refreshed every 10 minutes)

About weather observations | Map of Darwin area stations | Latest observations for Darwin area | Other Formats
Station Details ID: 014272 Name: BATCHELOR AIRPORT Lat: -13.05 Lon: 131.03 Height: 104.0 m
Data from the previous 72 hours. | See also: Recent months at Batchelor
Date/Time
CST
Tmp

°C
App
Tmp
°C
Dew
Point
°C
Rel
Hum
%
Delta-T

°C
Wind Press
QNH
hPa
Press
MSL
hPa
Rain
since
9 am
mm
Dir
 
Spd
km/h
Gust
km/h
Spd
kts
Gust
kts
01/07:30pm 31.8 30.7 14.4 34 10.7 NW 13 20 7 11 1008.1 1007.3 0.0
01/07:00pm 32.6 31.4 15.1 34 10.9 NW 15 24 8 13 1007.8 1007.0 0.0
01/06:30pm 33.9 33.3 16.7 35 11.0 NNW 15 22 8 12 1007.2 1006.4 0.0
01/06:00pm 37.0 35.7 11.1 21 15.4 NE 9 15 5 8 1006.8 1006.0 0.0
01/05:30pm 37.6 35.4 9.2 18 16.5 NE 11 19 6 10 1006.6 1005.8 0.0
01/05:00pm 37.9 36.3 10.3 19 16.3 E 9 19 5 10 1006.4 1005.6 0.0
01/04:30pm 38.0 35.9 11.1 20 16.1 ENE 13 20 7 11 1006.4 1005.6 0.0
01/04:00pm 37.9 37.1 11.1 20 16.0 E 6 15 3 8 1006.4 1005.6 0.0
01/03:30pm 37.6 37.3 11.5 21 15.7 NE 4 11 2 6 1006.8 1006.0 0.0
01/03:00pm 37.9 36.9 11.1 20 16.0 E 7 15 4 8 1007.0 1006.2 0.0
01/02:30pm 37.9 36.4 11.8 21 15.8 NE 11 24 6 13 1007.7 1006.9 0.0
01/02:00pm 37.5 36.1 13.5 24 14.8 ESE 13 28 7 15 1008.2 1007.4 0.0
01/01:30pm 36.4 36.3 15.0 28 13.5 SE 9 24 5 13 1008.7 1007.9 0.0
01/01:00pm 35.6 36.2 15.3 29 12.8 WNW 6 9 3 5 1009.4 1008.6 0.0
01/12:30pm 35.4 36.1 16.2 32 12.2 SSE 7 15 4 8 1010.2 1009.4 0.0
01/12:00pm 34.4 35.3 16.7 34 11.3 N 7 13 4 7 1010.9 1010.2 0.0
01/11:30am 34.5 35.1 16.8 34 11.3 E 9 15 5 8 1011.5 1010.8 0.0
01/11:00am 33.6 34.5 16.5 36 10.9 NE 7 15 4 8 1011.8 1011.1 0.0
01/10:30am 33.1 33.9 17.3 39 10.1 NE 9 15 5 8 1012.2 1011.5 0.0
01/10:00am 31.8 32.8 18.7 45 8.5 NE 11 17 6 9 1012.5 1011.8 0.0
01/09:30am 31.7 33.2 19.0 47 8.3 ENE 9 15 5 8 1012.6 1011.9 0.0
01/09:00am 29.7 32.7 20.0 56 6.4 NNE 4 7 2 4 1012.5 1011.8 0.0
01/08:30am 28.9 32.8 21.1 62 5.2 NNE 2 6 1 3 1012.4 1011.7 0.0
01/08:00am 27.8 31.6 20.9 66 4.6 W 2 6 1 3 1012.0 1011.3 0.0
01/07:30am 26.3 29.9 20.6 71 3.8 WSW 2 4 1 2 1011.5 1010.8 0.0
01/07:00am 24.0 27.7 19.9 78 2.7 CALM 0 6 0 3 1010.9 1010.2 0.0
01/06:30am 22.3 25.8 19.5 84 1.8 CALM 0 0 0 0 1010.5 1009.8 0.0
01/06:00am 21.9 25.2 19.1 84 1.8 WSW 0 0 0 0 1010.0 1009.3 0.0
01/05:30am 21.9 24.9 18.5 81 2.1 CALM 0 0 0 0 1009.4 1008.6 0.0
01/05:00am 21.9 24.7 17.9 78 2.5 CALM 0 4 0 2 1009.1 1008.3 0.0
01/04:30am 22.3 25.3 18.5 79 2.4 WSW 0 0 0 0 1008.8 1008.0 0.0
01/04:00am 22.3 25.3 18.5 79 2.4 CALM 0 0 0 0 1008.6 1007.8 0.0
01/03:30am 22.6 25.8 18.8 79 2.4 CALM 0 0 0 0 1008.5 1007.7 0.0
01/03:00am 23.0 26.0 18.5 76 2.8 WSW 0 0 0 0 1008.4 1007.6 0.0
01/02:30am 23.2 26.4 18.9 77 2.7 CALM 0 0 0 0 1008.5 1007.7 0.0
01/02:00am 23.7 26.8 18.6 73 3.2 CALM 0 0 0 0 1008.7 1007.9 0.0
01/01:30am 24.1 27.1 18.5 71 3.6 CALM 0 0 0 0 1008.9 1008.1 0.0
01/01:00am 24.8 27.5 18.7 69 3.9 WSW 2 4 1 2 1009.1 1008.3 0.0
01/12:30am 25.2 27.6 18.9 68 4.0 WSW 4 6 2 3 1009.5 1008.8 0.0
01/12:00am 25.1 27.7 18.5 67 4.2 WNW 2 4 1 2 1009.9 1009.2 0.0
 
Date/Time
CST
Tmp

°C
App
Tmp
°C
Dew
Point
°C
Rel
Hum
%
Delta-T

°C
Wind Press
QNH
hPa
Press
MSL
hPa
Rain
since
9 am
mm
Dir
 
Spd
km/h
Gust
km/h
Spd
kts
Gust
kts
31/11:30pm 25.3 27.8 18.2 64 4.5 WNW 2 4 1 2 1010.0 1009.3 0.0
31/11:00pm 25.9 28.4 18.1 62 4.9 WNW 2 4 1 2 1010.2 1009.5 0.0
31/10:30pm 26.1 27.9 17.5 59 5.4 WNW 4 6 2 3 1010.2 1009.5 0.0
31/10:00pm 26.9 28.7 17.4 56 6.0 WNW 4 7 2 4 1009.9 1009.2 0.0
31/09:30pm 27.6 29.1 17.7 54 6.3 WNW 6 11 3 6 1009.8 1009.1 0.0
31/09:00pm 28.3 29.3 16.9 50 7.2 WNW 7 13 4 7 1009.6 1008.9 0.0
31/08:30pm 28.5 29.1 16.7 48 7.4 NW 9 11 5 6 1009.4 1008.6 0.0
31/08:00pm 29.0 29.5 16.5 46 7.8 NW 9 15 5 8 1009.1 1008.3 0.0
31/07:30pm 30.0 29.2 16.1 43 8.7 NW 15 20 8 11 1008.8 1008.0 0.0
31/07:00pm 31.0 29.8 15.0 38 9.9 WNW 15 24 8 13 1008.2 1007.4 0.0
31/06:30pm 32.6 31.0 13.8 32 11.5 WNW 15 20 8 11 1007.7 1006.9 0.0
31/06:00pm 34.4 33.0 13.3 28 12.9 NNW 13 20 7 11 1007.2 1006.4 0.0
31/05:30pm 34.7 32.8 15.1 31 12.3 WNW 19 32 10 17 1006.5 1005.7 0.0
31/05:00pm 35.1 32.5 14.9 29 12.6 W 22 37 12 20 1006.3 1005.5 0.0
31/04:30pm 37.4 36.1 9.9 19 16.1 ESE 7 15 4 8 1006.4 1005.6 0.0
31/04:00pm 37.4 37.1 12.8 23 15.0 WNW 6 11 3 6 1006.6 1005.8 0.0
31/03:30pm 37.3 37.2 12.0 22 15.3 W 4 13 2 7 1007.0 1006.2 0.0
31/03:00pm 37.1 36.5 11.8 22 15.2 ENE 6 13 3 7 1007.3 1006.5 0.0
31/02:30pm 37.7 36.1 11.6 21 15.7 NE 11 20 6 11 1007.6 1006.8 0.0
31/02:00pm 36.5 35.2 11.3 22 15.0 ENE 9 13 5 7 1007.9 1007.1 0.0
31/01:30pm 36.1 35.7 12.3 24 14.4 NNE 6 15 3 8 1008.5 1007.7 0.0
31/01:00pm 36.0 35.2 12.9 25 14.1 NNE 9 20 5 11 1009.1 1008.3 0.0
31/12:30pm 34.5 35.0 14.9 31 12.2 NNE 6 11 3 6 1009.6 1008.9 0.0
31/12:00pm 34.6 34.7 14.5 30 12.5 NW 7 13 4 7 1010.1 1009.4 0.0
31/11:30am 33.5 33.9 16.4 36 10.9 N 9 19 5 10 1010.7 1010.0 0.0
31/11:00am 32.5 33.3 16.3 37 10.2 NNE 7 13 4 7 1011.1 1010.4 0.0
31/10:30am 31.4 32.8 17.3 43 9.0 ENE 6 11 3 6 1011.3 1010.6 0.0
31/10:00am 31.3 32.7 18.6 46 8.3 NNW 9 15 5 8 1011.7 1011.0 0.0
31/09:30am 29.8 31.4 18.3 50 7.4 WNW 7 13 4 7 1011.8 1011.1 0.0
31/09:00am 29.4 32.2 20.8 60 5.7 NW 7 13 4 7 1011.7 1011.0 0.0
31/08:30am 28.2 31.6 22.0 69 4.2 NW 7 13 4 7 1011.6 1010.9 0.0
31/08:00am 27.5 31.2 22.2 73 3.6 NNW 6 9 3 5 1011.4 1010.7 0.0
31/07:30am 26.2 31.2 22.5 80 2.5 CALM 0 4 0 2 1011.1 1010.4 0.0
31/07:00am 23.7 28.2 21.6 88 1.4 CALM 0 0 0 0 1010.5 1009.8 0.0
31/06:30am 22.1 25.8 20.0 88 1.4 CALM 0 0 0 0 1010.2 1009.5 0.0
31/06:00am 22.4 26.3 20.3 88 1.4 CALM 0 0 0 0 1009.8 1009.1 0.0
31/05:30am 22.5 26.4 20.4 88 1.4 CALM 0 0 0 0 1009.6 1008.9 0.0
31/05:00am 22.5 26.2 20.0 86 1.6 CALM 0 0 0 0 1009.4 1008.6 0.0
31/04:30am 22.7 26.4 19.9 84 1.8 CALM 0 0 0 0 1009.1 1008.3 0.0
31/04:00am 23.0 26.7 20.0 83 1.9 CALM 0 0 0 0 1008.8 1008.0 0.0
31/03:30am 23.6 27.5 20.3 82 2.2 CALM 0 0 0 0 1008.8 1008.0 0.0
31/03:00am 23.8 27.0 19.7 78 2.6 WNW 2 4 1 2 1008.7 1007.9 0.0
31/02:30am 24.2 27.4 19.7 76 2.9 WNW 2 4 1 2 1008.9 1008.1 0.0
31/02:00am 24.9 28.3 20.2 75 3.1 WNW 2 4 1 2 1009.3 1008.5 0.0
31/01:30am 25.4 28.6 20.6 75 3.2 WNW 4 4 2 2 1009.3 1008.5 0.0
31/01:00am 25.6 28.8 20.6 74 3.3 WNW 4 6 2 3 1009.3 1008.5 0.0
31/12:30am 25.5 28.9 20.1 72 3.5 W 2 4 1 2 1009.5 1008.8 0.0
31/12:00am 25.7 28.9 18.9 66 4.4 CALM 0 2 0 1 1009.9 1009.2 0.0
 
Date/Time
CST
Tmp

°C
App
Tmp
°C
Dew
Point
°C
Rel
Hum
%
Delta-T

°C
Wind Press
QNH
hPa
Press
MSL
hPa
Rain
since
9 am
mm
Dir
 
Spd
km/h
Gust
km/h
Spd
kts
Gust
kts
30/11:30pm 26.7 30.1 20.1 67 4.3 W 2 6 1 3 1010.0 1009.3 0.0
30/11:00pm 27.1 29.8 20.2 66 4.5 WNW 6 9 3 5 1010.0 1009.3 0.0
30/10:30pm 27.4 29.6 19.2 61 5.3 W 6 7 3 4 1010.1 1009.4 0.0
30/10:00pm 27.9 29.7 18.3 56 6.1 W 6 9 3 5 1010.0 1009.3 0.0
30/09:30pm 28.7 29.8 16.6 48 7.6 W 6 9 3 5 1009.5 1008.8 0.0
30/09:00pm 29.0 29.9 16.5 46 7.8 NW 7 11 4 6 1009.3 1008.5 0.0
30/08:30pm 29.6 29.5 16.1 44 8.4 NW 11 17 6 9 1008.9 1008.1 0.0
30/08:00pm 30.4 29.9 14.9 39 9.5 NNW 11 19 6 10 1008.5 1007.7 0.0
30/07:30pm 31.2 30.5 14.4 36 10.3 NNW 11 20 6 11 1008.2 1007.4 0.0
30/07:00pm 31.9 30.4 14.1 34 10.9 NNW 15 20 8 11 1007.8 1007.0 0.0
30/06:30pm 33.0 31.8 14.1 32 11.6 N 13 19 7 10 1007.4 1006.6 0.0
30/06:00pm 34.0 31.9 13.5 29 12.5 N 17 26 9 14 1006.9 1006.1 0.0
30/05:30pm 35.2 33.4 13.4 27 13.4 N 15 24 8 13 1006.7 1005.9 0.0
30/05:00pm 36.2 34.3 14.2 26 13.7 N 17 24 9 13 1006.7 1005.9 0.0
30/04:30pm 36.5 35.3 15.0 27 13.5 N 15 30 8 16 1006.5 1005.7 0.0
30/04:00pm 37.7 36.6 13.0 23 15.1 N 11 20 6 11 1006.7 1005.9 0.0
30/03:30pm 38.1 37.4 13.3 22 15.3 N 9 19 5 10 1006.9 1006.1 0.0
30/03:00pm 37.7 36.2 13.0 23 15.2 NNE 13 22 7 12 1007.3 1006.5 0.0
30/02:30pm 37.4 37.6 14.7 26 14.3 N 7 15 4 8 1007.7 1006.9 0.0
30/02:00pm 37.0 36.5 14.9 27 13.9 ENE 11 26 6 14 1007.9 1007.1 0.0
30/01:30pm 37.3 36.7 15.7 27 13.8 NNE 13 20 7 11 1008.5 1007.7 0.0
30/01:00pm 36.0 36.0 15.2 29 13.1 ENE 9 19 5 10 1009.1 1008.3 0.0
30/12:30pm 36.0 35.8 14.6 27 13.4 E 9 17 5 9 1009.7 1009.0 0.0
30/12:00pm 35.5 34.9 14.7 28 13.0 E 11 20 6 11 1010.1 1009.4 0.0
30/11:30am 33.5 34.3 15.9 34 11.1 SSE 6 15 3 8 1010.6 1009.9 0.0
30/11:00am 33.2 34.1 16.5 36 10.6 NE 7 15 4 8 1010.9 1010.2 0.0
30/10:30am 31.9 33.4 16.6 39 9.7 N 4 7 2 4 1011.5 1010.8 0.0
30/10:00am 31.5 33.5 17.8 44 8.8 W 4 9 2 5 1011.8 1011.1 0.0
30/09:30am 29.9 32.8 19.9 55 6.6 N 4 6 2 3 1012.0 1011.3 0.0
30/09:00am 28.9 32.3 20.9 62 5.3 WNW 4 7 2 4 1012.0 1011.3 0.0
30/08:30am 27.9 31.6 21.4 67 4.4 N 4 9 2 5 1012.0 1011.3 0.0
30/08:00am 26.8 30.0 21.3 72 3.7 NNE 6 7 3 4 1011.7 1011.0 0.0
30/07:30am 25.7 29.0 21.4 77 2.9 ENE 6 7 3 4 1011.5 1010.8 0.0
30/07:00am 23.6 28.0 21.3 87 1.5 CALM 0 0 0 0 1010.9 1010.2 0.0
30/06:30am 21.7 25.1 19.4 87 1.5 CALM 0 0 0 0 1010.7 1010.0 0.0
30/06:00am 21.9 25.6 20.0 89 1.2 CALM 0 0 0 0 1010.4 1009.7 0.0
30/05:30am 22.4 26.1 20.7 90 1.1 ENE 2 2 1 1 1010.4 1009.7 0.0
30/05:00am 22.4 25.7 20.7 90 1.1 ENE 4 6 2 3 1010.1 1009.4 0.0
30/04:30am 22.9 26.8 20.4 86 1.6 CALM 0 0 0 0 1009.7 1009.0 0.0
30/04:00am 23.4 27.5 20.7 85 1.8 CALM 0 0 0 0 1009.7 1009.0 0.0
30/03:30am 23.9 27.8 20.4 81 2.3 CALM 0 0 0 0 1009.7 1009.0 0.0
30/03:00am 24.1 28.1 20.6 81 2.3 CALM 0 0 0 0 1009.8 1009.1 0.0
30/02:30am 24.7 29.0 21.2 81 2.3 CALM 0 0 0 0 1010.1 1009.4 0.0
30/02:00am 25.2 29.7 21.5 80 2.5 CALM 0 2 0 1 1010.6 1009.9 0.0
30/01:30am 25.5 29.4 21.8 80 2.5 NE 4 7 2 4 1011.1 1010.4 0.0
30/01:00am 25.8 29.7 21.9 79 2.6 N 4 4 2 2 1011.2 1010.5 0.0
30/12:30am 26.0 30.3 21.9 78 2.8 N 2 4 1 2 1011.3 1010.6 0.0
30/12:00am 26.1 30.6 22.2 79 2.6 N 2 4 1 2 1011.6 1010.9 0.0
 
Date/Time
CST
Tmp

°C
App
Tmp
°C
Dew
Point
°C
Rel
Hum
%
Delta-T

°C
Wind Press
QNH
hPa
Press
MSL
hPa
Rain
since
9 am
mm
Dir
 
Spd
km/h
Gust
km/h
Spd
kts
Gust
kts
29/11:30pm 26.3 30.6 21.9 77 3.0 N 2 4 1 2 1011.7 1011.0 0.0
29/11:00pm 26.6 31.1 21.6 74 3.3 CALM 0 4 0 2 1011.5 1010.8 0.0
29/10:30pm 27.1 31.3 21.8 73 3.6 N 2 4 1 2 1011.6 1010.9 0.0
29/10:00pm 27.5 31.1 22.0 72 3.7 W 6 9 3 5 1011.3 1010.6 0.0
29/09:30pm 27.8 31.3 21.8 70 4.0 WNW 6 11 3 6 1011.1 1010.4 0.0
29/09:00pm 28.2 31.4 21.7 68 4.4 W 7 15 4 8 1010.8 1010.1 0.0
29/08:30pm 28.5 31.0 21.8 67 4.5 WNW 11 20 6 11 1010.5 1009.8 0.0
29/08:00pm 29.0 30.3 21.7 64 4.9 WNW 17 22 9 12 1010.0 1009.3 0.0

Latest Capital City Observations: Canberra | Sydney | Melbourne | Brisbane | Adelaide | Perth | Hobart | Darwin

Other Formats:

Comma delimited format used in spreadsheet applications
http://www.bom.gov.au/fwo/IDD60901/IDD60901.94125.axf

JavaScript Object Notation format (JSON) in row-major order
http://www.bom.gov.au/fwo/IDD60901/IDD60901.94125.json